Time;durP1;ratioP1;P1;durP2;ratioP2;P2;SDS_P1;SDS_P2;PMS_P1;PMS_P2;Temp;Humidity;BMP_temperature;BMP_pressure;BME280_temperature;BME280_humidity;BME280_pressure;Samples;Min_cycle;Max_cycle;Signal;HPM_P1;HPM_P2
2023/03/22 00:00:53;;;;;;;13.43;8.75;;;;;;;;;;12899473;23;20035;-76
2023/03/22 00:05:57;;;;;;;13.52;8.30;;;;;;;;;;12900167;23;20008;-74
2023/03/22 00:10:57;;;;;;;10.10;7.70;;;;;;;;;;12899559;23;20045;-75
2023/03/22 00:15:58;;;;;;;8.50;6.90;;;;;;;;;;12899571;23;20066;-74
2023/03/22 00:20:59;;;;;;;9.93;7.18;;;;;;;;;;12873235;22;20107;-74
2023/03/22 00:25:59;;;;;;;12.32;8.00;;;;;;;;;;12899036;23;20008;-75
2023/03/22 00:31:00;;;;;;;11.57;8.60;;;;;;;;;;12900796;23;20388;-74
2023/03/22 00:36:02;;;;;;;11.65;8.40;;;;;;;;;;12900951;23;20091;-73
2023/03/22 00:41:10;;;;;;;11.60;8.20;;;;;;;;;;12899611;22;20023;-74
2023/03/22 00:46:11;;;;;;;12.73;8.50;;;;;;;;;;12900786;22;20125;-75
2023/03/22 00:51:12;;;;;;;12.77;8.98;;;;;;;;;;12904021;23;20639;-75
2023/03/22 00:56:14;;;;;;;11.43;7.88;;;;;;;;;;12875982;23;20690;-74
2023/03/22 01:01:32;;;;;;;9.25;7.38;;;;;;;;;;12874807;23;20016;-73
2023/03/22 01:06:33;;;;;;;9.10;7.13;;;;;;;;;;12876666;23;20016;-73
2023/03/22 01:11:34;;;;;;;8.68;6.97;;;;;;;;;;12876155;23;20302;-75
2023/03/22 01:16:37;;;;;;;9.80;8.15;;;;;;;;;;12903244;23;20087;-77
2023/03/22 01:21:37;;;;;;;9.75;7.80;;;;;;;;;;12903919;23;20533;-76
2023/03/22 01:26:38;;;;;;;11.93;8.30;;;;;;;;;;12903206;23;20004;-73
2023/03/22 01:31:38;;;;;;;12.35;8.57;;;;;;;;;;12900407;22;20420;-76
2023/03/22 01:36:39;;;;;;;10.15;7.70;;;;;;;;;;12850653;22;20166;-75
2023/03/22 01:41:39;;;;;;;11.55;8.18;;;;;;;;;;12852122;23;20012;-74
2023/03/22 01:46:48;;;;;;;12.18;8.15;;;;;;;;;;12875495;23;20095;-75
2023/03/22 01:51:50;;;;;;;11.95;9.10;;;;;;;;;;12876342;23;20012;-74
2023/03/22 01:57:14;;;;;;;12.88;9.15;;;;;;;;;;12864625;23;20024;-74
2023/03/22 02:02:17;;;;;;;13.55;8.93;;;;;;;;;;12850032;23;20012;-75
2023/03/22 02:07:26;;;;;;;10.13;8.02;;;;;;;;;;12875170;23;20019;-73
2023/03/22 02:12:48;;;;;;;12.02;8.45;;;;;;;;;;12873937;22;20016;-75
2023/03/22 02:18:20;;;;;;;15.70;9.83;;;;;;;;;;12823569;23;20020;-75
2023/03/22 02:23:45;;;;;;;10.98;8.70;;;;;;;;;;12874395;23;20154;-74
2023/03/22 02:28:51;;;;;;;12.60;8.88;;;;;;;;;;12874826;23;20444;-76
2023/03/22 02:33:57;;;;;;;11.70;7.85;;;;;;;;;;12901191;23;20341;-79
2023/03/22 02:38:59;;;;;;;10.60;8.30;;;;;;;;;;12875949;22;20028;-75
2023/03/22 02:44:07;;;;;;;11.98;8.00;;;;;;;;;;12875323;22;20487;-76
2023/03/22 02:49:10;;;;;;;13.70;8.43;;;;;;;;;;12874210;23;20008;-77
2023/03/22 02:54:14;;;;;;;13.65;7.88;;;;;;;;;;12874177;23;20027;-75
2023/03/22 02:59:16;;;;;;;10.98;7.93;;;;;;;;;;12901086;23;20048;-76
2023/03/22 03:04:20;;;;;;;12.35;8.77;;;;;;;;;;12901458;23;20012;-76
2023/03/22 03:09:21;;;;;;;13.63;8.80;;;;;;;;;;12900739;23;20031;-76
2023/03/22 03:14:29;;;;;;;15.23;9.48;;;;;;;;;;12900218;23;20016;-74
2023/03/22 03:19:33;;;;;;;11.65;8.70;;;;;;;;;;12847675;23;20020;-75
2023/03/22 03:24:46;;;;;;;14.68;8.18;;;;;;;;;;12875074;23;20127;-75
2023/03/22 03:29:51;;;;;;;19.25;10.68;;;;;;;;;;12901708;23;20007;-76
2023/03/22 03:35:06;;;;;;;14.98;9.45;;;;;;;;;;12850812;23;20345;-76
2023/03/22 03:40:12;;;;;;;12.52;8.50;;;;;;;;;;12901175;23;20062;-75
2023/03/22 03:45:14;;;;;;;14.50;8.48;;;;;;;;;;12900178;23;20019;-75
2023/03/22 03:50:15;;;;;;;14.20;9.60;;;;;;;;;;12873190;23;20401;-74
2023/03/22 03:55:15;;;;;;;16.63;9.40;;;;;;;;;;12847585;22;20062;-75
2023/03/22 04:00:17;;;;;;;14.15;10.07;;;;;;;;;;12899274;23;20524;-74
2023/03/22 04:05:37;;;;;;;16.98;10.07;;;;;;;;;;12900510;22;20016;-74
2023/03/22 04:10:38;;;;;;;14.18;9.68;;;;;;;;;;12874358;23;20340;-75
2023/03/22 04:15:38;;;;;;;15.02;9.88;;;;;;;;;;12901676;22;20012;-76
2023/03/22 04:20:45;;;;;;;14.55;8.98;;;;;;;;;;12874776;23;20052;-75
2023/03/22 04:25:49;;;;;;;12.60;9.23;;;;;;;;;;12875848;23;20036;-75
2023/03/22 04:30:51;;;;;;;14.38;9.18;;;;;;;;;;12851057;22;20016;-75
2023/03/22 04:36:10;;;;;;;12.13;8.50;;;;;;;;;;12901891;23;20016;-74
2023/03/22 04:41:25;;;;;;;11.70;8.15;;;;;;;;;;12875001;23;20044;-75
2023/03/22 04:46:30;;;;;;;11.77;8.20;;;;;;;;;;12876414;22;20016;-75
2023/03/22 04:51:37;;;;;;;13.93;8.85;;;;;;;;;;12875417;23;20038;-73
2023/03/22 04:57:00;;;;;;;11.20;8.07;;;;;;;;;;12856051;23;20024;-72
2023/03/22 05:02:03;;;;;;;14.75;9.55;;;;;;;;;;12875432;23;20662;-73
2023/03/22 05:07:11;;;;;;;13.23;8.18;;;;;;;;;;12876207;23;20027;-74
2023/03/22 05:12:26;;;;;;;15.93;9.27;;;;;;;;;;12874481;23;20062;-75
2023/03/22 05:17:32;;;;;;;15.35;9.93;;;;;;;;;;12876053;23;20028;-74
2023/03/22 05:22:36;;;;;;;15.60;10.73;;;;;;;;;;12875745;23;20504;-75
2023/03/22 05:27:38;;;;;;;;;;;;;;;;;;12876234;23;20008;-74
2023/03/22 05:33:02;;;;;;;14.55;9.10;;;;;;;;;;12902689;23;19974;-74
2023/03/22 05:38:04;;;;;;;14.40;10.07;;;;;;;;;;12875431;23;20020;-76
2023/03/22 05:43:09;;;;;;;18.80;10.48;;;;;;;;;;12877659;23;20656;-75
2023/03/22 05:48:14;;;;;;;15.55;10.93;;;;;;;;;;12851460;22;20016;-75
2023/03/22 05:53:15;;;;;;;17.00;11.25;;;;;;;;;;12876541;23;20095;-77
2023/03/22 05:58:39;;;;;;;13.13;10.30;;;;;;;;;;12901136;23;20031;-75
2023/03/22 06:03:42;;;;;;;18.20;12.25;;;;;;;;;;12871922;23;20019;-74
2023/03/22 06:08:51;;;;;;;18.60;12.35;;;;;;;;;;12874542;23;20024;-74
2023/03/22 06:13:52;;;;;;;18.75;12.48;;;;;;;;;;12900478;23;20019;-76
2023/03/22 06:18:54;;;;;;;16.63;11.55;;;;;;;;;;12848563;22;20017;-74
2023/03/22 06:23:55;;;;;;;15.40;10.40;;;;;;;;;;12888202;23;20016;-77
2023/03/22 06:28:58;;;;;;;;;;;;;;;;;;12926739;22;20507;-74
2023/03/22 06:33:58;;;;;;;18.05;11.80;;;;;;;;;;12875859;23;19916;-74
2023/03/22 06:39:04;;;;;;;14.40;11.38;;;;;;;;;;12874225;23;20459;-75
2023/03/22 06:44:05;;;;;;;15.45;10.55;;;;;;;;;;12848070;23;20020;-75
2023/03/22 06:49:27;;;;;;;14.30;10.05;;;;;;;;;;12872889;23;20020;-74
2023/03/22 06:54:30;;;;;;;12.15;9.85;;;;;;;;;;12874143;23;20004;-75
2023/03/22 06:59:30;;;;;;;12.57;9.32;;;;;;;;;;12873841;23;20030;-76
2023/03/22 07:04:33;;;;;;;11.82;9.77;;;;;;;;;;12873354;23;20031;-74
2023/03/22 07:09:33;;;;;;;12.53;9.53;;;;;;;;;;12847571;23;20291;-75
2023/03/22 07:14:34;;;;;;;12.48;9.75;;;;;;;;;;12905402;23;20012;-75
2023/03/22 07:20:02;;;;;;;13.98;9.90;;;;;;;;;;12872756;23;20027;-76
2023/03/22 07:25:04;;;;;;;14.20;10.32;;;;;;;;;;12872757;22;20012;-75
2023/03/22 07:30:08;;;;;;;14.47;9.70;;;;;;;;;;12870990;23;20012;-74
2023/03/22 07:35:12;;;;;;;11.75;8.13;;;;;;;;;;12871751;23;20836;-74
2023/03/22 07:40:14;;;;;;;11.00;8.77;;;;;;;;;;12848204;23;20074;-74
2023/03/22 07:45:15;;;;;;;11.18;8.70;;;;;;;;;;12873173;23;20015;-75
2023/03/22 07:50:16;;;;;;;9.82;7.93;;;;;;;;;;12872407;23;20012;-75
2023/03/22 07:55:20;;;;;;;;;;;;;;;;;;12873273;23;20015;-73
2023/03/22 08:00:21;;;;;;;10.73;7.70;;;;;;;;;;12900470;23;19926;-74
2023/03/22 08:05:46;;;;;;;10.93;7.28;;;;;;;;;;12896977;23;20051;-74
2023/03/22 08:10:49;;;;;;;9.68;6.82;;;;;;;;;;12871743;23;20023;-75
2023/03/22 08:15:50;;;;;;;9.25;7.65;;;;;;;;;;12898499;23;20016;-75
2023/03/22 08:20:55;;;;;;;8.70;7.20;;;;;;;;;;12848294;23;20035;-75
2023/03/22 08:25:57;;;;;;;8.65;6.72;;;;;;;;;;12873106;23;20099;-75
2023/03/22 08:30:59;;;;;;;8.90;7.50;;;;;;;;;;12900222;23;20796;-75
2023/03/22 08:36:07;;;;;;;9.40;7.05;;;;;;;;;;12873866;23;20097;-75
2023/03/22 08:41:14;;;;;;;8.77;6.28;;;;;;;;;;12849124;23;20024;-76
2023/03/22 08:46:16;;;;;;;6.38;5.50;;;;;;;;;;12871168;22;20019;-76
2023/03/22 08:51:20;;;;;;;7.13;5.90;;;;;;;;;;12872936;23;20023;-77
2023/03/22 08:56:36;;;;;;;6.50;5.50;;;;;;;;;;12898624;23;20020;-77
2023/03/22 09:01:47;;;;;;;6.82;5.07;;;;;;;;;;12853071;23;20467;-76
2023/03/22 09:06:48;;;;;;;6.63;5.22;;;;;;;;;;12874950;23;20016;-74
2023/03/22 09:11:48;;;;;;;5.30;4.32;;;;;;;;;;12905063;22;20012;-76
2023/03/22 09:16:50;;;;;;;4.10;3.28;;;;;;;;;;12903598;23;20081;-76
2023/03/22 09:21:51;;;;;;;5.22;4.20;;;;;;;;;;12851278;23;20024;-76
2023/03/22 09:27:03;;;;;;;4.45;3.72;;;;;;;;;;12852418;23;20047;-74
2023/03/22 09:32:04;;;;;;;4.40;3.45;;;;;;;;;;12901959;23;20042;-75
2023/03/22 09:37:11;;;;;;;6.18;3.42;;;;;;;;;;12874969;23;20102;-75
2023/03/22 09:42:27;;;;;;;3.33;2.58;;;;;;;;;;12875269;23;20031;-75
2023/03/22 09:47:32;;;;;;;3.15;2.72;;;;;;;;;;12875269;23;20032;-75
2023/03/22 09:52:34;;;;;;;2.75;2.13;;;;;;;;;;12901965;23;20008;-76
2023/03/22 09:57:36;;;;;;;2.33;2.13;;;;;;;;;;12875182;23;20020;-74
2023/03/22 10:02:39;;;;;;;3.50;2.63;;;;;;;;;;12898977;23;20008;-77
2023/03/22 10:07:58;;;;;;;3.22;2.10;;;;;;;;;;12902194;23;20008;-76
2023/03/22 10:13:15;;;;;;;3.22;1.70;;;;;;;;;;12875412;23;20016;-76
2023/03/22 10:18:19;;;;;;;3.13;2.42;;;;;;;;;;12879634;23;20481;-77
2023/03/22 10:23:23;;;;;;;2.15;1.92;;;;;;;;;;12902980;23;20112;-76
2023/03/22 10:28:40;;;;;;;2.47;1.90;;;;;;;;;;12901317;23;20008;-76
2023/03/22 10:33:49;;;;;;;2.97;1.70;;;;;;;;;;12902529;22;20086;-76
2023/03/22 10:38:54;;;;;;;3.25;2.10;;;;;;;;;;12902021;23;20027;-76
2023/03/22 10:43:56;;;;;;;2.72;1.88;;;;;;;;;;12875158;23;20082;-77
2023/03/22 10:48:58;;;;;;;2.40;1.50;;;;;;;;;;12902041;23;20015;-75
2023/03/22 10:54:00;;;;;;;3.43;1.90;;;;;;;;;;12900774;23;20012;-77
2023/03/22 10:59:00;;;;;;;3.55;1.65;;;;;;;;;;12873690;23;20395;-76
2023/03/22 11:04:12;;;;;;;3.20;1.40;;;;;;;;;;12848003;23;20119;-78
2023/03/22 11:09:16;;;;;;;2.83;1.45;;;;;;;;;;12900313;23;20016;-79
2023/03/22 11:14:21;;;;;;;6.28;1.75;;;;;;;;;;12901251;23;20044;-77
2023/03/22 11:19:27;;;;;;;2.00;1.88;;;;;;;;;;12900979;23;20024;-76
2023/03/22 11:24:30;;;;;;;1.67;1.58;;;;;;;;;;12876114;23;20020;-76
2023/03/22 11:29:38;;;;;;;2.25;1.30;;;;;;;;;;12876966;23;20019;-77
2023/03/22 11:34:44;;;;;;;2.47;1.38;;;;;;;;;;12903977;23;20077;-78
2023/03/22 11:39:48;;;;;;;2.38;1.30;;;;;;;;;;12906188;23;20016;-80
2023/03/22 11:44:55;;;;;;;1.45;1.20;;;;;;;;;;12883223;23;20088;-78
2023/03/22 11:49:57;;;;;;;3.65;1.63;;;;;;;;;;12902105;23;20073;-79
2023/03/22 11:54:58;;;;;;;1.83;1.50;;;;;;;;;;12876154;23;20035;-79
2023/03/22 12:00:10;;;;;;;3.47;1.70;;;;;;;;;;12903009;23;20020;-81
2023/03/22 12:05:10;;;;;;;2.70;1.40;;;;;;;;;;12871331;23;20016;-77
2023/03/22 12:10:13;;;;;;;2.10;1.30;;;;;;;;;;12898183;23;20064;-79
2023/03/22 12:15:13;;;;;;;2.90;1.50;;;;;;;;;;12895416;23;20173;-77
2023/03/22 12:20:20;;;;;;;2.40;1.50;;;;;;;;;;12890626;23;20126;-77
2023/03/22 12:25:31;;;;;;;3.15;1.30;;;;;;;;;;12874973;23;20020;-78
2023/03/22 12:30:41;;;;;;;2.65;1.50;;;;;;;;;;12873193;23;20020;-79
2023/03/22 12:35:45;;;;;;;3.15;1.83;;;;;;;;;;12869421;23;20016;-79
2023/03/22 12:40:46;;;;;;;1.75;1.30;;;;;;;;;;12867337;23;20099;-78
2023/03/22 12:45:48;;;;;;;;;;;;;;;;;;12871398;22;20008;-76
2023/03/22 12:50:56;;;;;;;2.03;1.70;;;;;;;;;;12870834;23;19957;-81
2023/03/22 12:55:57;;;;;;;3.95;1.60;;;;;;;;;;12897243;23;20243;-78
2023/03/22 13:00:59;;;;;;;1.98;1.30;;;;;;;;;;12893402;23;20023;-78
2023/03/22 13:06:23;;;;;;;2.28;1.35;;;;;;;;;;12896744;23;20008;-78
2023/03/22 13:11:24;;;;;;;3.88;2.67;;;;;;;;;;12867001;23;20107;-79
2023/03/22 13:16:41;;;;;;;2.30;1.40;;;;;;;;;;12894367;22;20083;-79
2023/03/22 13:21:42;;;;;;;2.65;1.40;;;;;;;;;;12895262;22;20020;-79
2023/03/22 13:26:51;;;;;;;1.88;1.30;;;;;;;;;;12905863;23;20329;-80
2023/03/22 13:31:56;;;;;;;3.45;1.40;;;;;;;;;;12870966;22;20019;-82
2023/03/22 13:36:56;;;;;;;1.50;1.35;;;;;;;;;;12899186;22;20365;-79
2023/03/22 13:42:28;;;;;;;2.67;1.40;;;;;;;;;;12873340;23;20016;-80
2023/03/22 13:47:47;;;;;;;2.25;1.30;;;;;;;;;;12876042;22;20330;-80
2023/03/22 13:53:13;;;;;;;1.55;1.38;;;;;;;;;;12899333;22;20333;-82
2023/03/22 13:58:35;;;;;;;2.85;1.10;;;;;;;;;;12875190;22;20081;-80
2023/03/22 14:03:39;;;;;;;2.92;1.00;;;;;;;;;;12869264;22;20425;-76
2023/03/22 14:08:42;;;;;;;2.97;1.20;;;;;;;;;;12896631;23;20347;-76
2023/03/22 14:13:45;;;;;;;1.75;1.00;;;;;;;;;;12898097;23;20008;-79
2023/03/22 14:18:48;;;;;;;1.25;0.80;;;;;;;;;;12893709;22;20809;-79
2023/03/22 14:23:54;;;;;;;1.63;1.10;;;;;;;;;;12897439;23;20012;-83
2023/03/22 14:29:25;;;;;;;4.30;3.00;;;;;;;;;;12870686;23;20112;-78
2023/03/22 14:34:33;;;;;;;2.72;1.02;;;;;;;;;;12874461;22;20008;-77
2023/03/22 14:39:39;;;;;;;2.53;1.27;;;;;;;;;;12895071;23;20395;-78
2023/03/22 14:44:42;;;;;;;1.95;1.02;;;;;;;;;;12866939;23;20824;-79
2023/03/22 14:49:45;;;;;;;2.30;1.10;;;;;;;;;;12866262;23;20074;-81
2023/03/22 14:54:48;;;;;;;4.85;1.52;;;;;;;;;;12869653;23;20374;-81
2023/03/22 14:59:49;;;;;;;2.30;1.10;;;;;;;;;;12869802;23;20024;-81
2023/03/22 15:04:50;;;;;;;1.88;0.90;;;;;;;;;;12872850;23;20012;-78
2023/03/22 15:09:51;;;;;;;0.90;0.80;;;;;;;;;;12900883;23;20038;-78
2023/03/22 15:14:51;;;;;;;1.60;0.90;;;;;;;;;;12910606;23;20330;-79
2023/03/22 15:19:53;;;;;;;1.65;1.00;;;;;;;;;;12910967;22;20580;-79
2023/03/22 15:25:03;;;;;;;1.05;0.95;;;;;;;;;;12890585;23;20016;-80
2023/03/22 15:30:06;;;;;;;4.65;2.47;;;;;;;;;;12876797;23;20098;-78
2023/03/22 15:35:08;;;;;;;104.70;84.75;;;;;;;;;;12927263;23;20005;-79
2023/03/22 15:40:27;;;;;;;33.50;28.40;;;;;;;;;;12908256;23;20043;-77
2023/03/22 15:45:27;;;;;;;67.80;55.05;;;;;;;;;;12875440;23;20097;-75
2023/03/22 15:50:27;;;;;;;1.70;1.60;;;;;;;;;;12902581;23;20012;-77
2023/03/22 15:55:31;;;;;;;3.60;1.23;;;;;;;;;;12875763;23;20016;-75
2023/03/22 16:00:36;;;;;;;1.83;1.10;;;;;;;;;;12901469;23;20032;-75
2023/03/22 16:05:37;;;;;;;1.60;1.08;;;;;;;;;;12872678;23;20012;-76
2023/03/22 16:10:42;;;;;;;1.23;1.10;;;;;;;;;;12901634;22;20014;-76
2023/03/22 16:15:42;;;;;;;3.58;1.15;;;;;;;;;;12903503;23;20095;-78
2023/03/22 16:20:43;;;;;;;3.13;1.70;;;;;;;;;;12879914;23;20475;-77
2023/03/22 16:25:44;;;;;;;1.40;1.10;;;;;;;;;;12910332;23;20009;-77
2023/03/22 16:30:46;;;;;;;1.42;1.00;;;;;;;;;;12920314;23;20008;-79
2023/03/22 16:35:46;;;;;;;1.20;0.98;;;;;;;;;;12874996;23;20028;-78
2023/03/22 16:40:49;;;;;;;2.38;1.30;;;;;;;;;;12913359;22;20024;-83
2023/03/22 16:45:49;;;;;;;2.87;1.90;;;;;;;;;;12915903;23;20605;-82
2023/03/22 16:50:50;;;;;;;2.58;1.60;;;;;;;;;;12886537;23;20107;-80
2023/03/22 16:55:54;;;;;;;2.28;1.48;;;;;;;;;;12920148;23;20008;-80
2023/03/22 17:00:55;;;;;;;1.80;1.10;;;;;;;;;;12898723;22;20027;-79
2023/03/22 17:05:57;;;;;;;2.03;1.20;;;;;;;;;;12901515;23;20004;-81
2023/03/22 17:11:00;;;;;;;1.67;1.40;;;;;;;;;;12903883;23;20429;-82
2023/03/22 17:16:01;;;;;;;3.90;1.50;;;;;;;;;;12878831;23;20030;-80
2023/03/22 17:21:03;;;;;;;2.65;1.70;;;;;;;;;;12882788;23;20027;-81
2023/03/22 17:26:05;;;;;;;3.60;1.60;;;;;;;;;;12913360;23;20008;-79
2023/03/22 17:31:09;;;;;;;6.88;2.35;;;;;;;;;;12890523;23;20012;-80
2023/03/22 17:36:12;;;;;;;2.70;2.33;;;;;;;;;;12880475;23;20016;-80
2023/03/22 17:41:13;;;;;;;3.83;1.93;;;;;;;;;;12879119;23;20098;-80
2023/03/22 17:46:14;;;;;;;3.15;2.00;;;;;;;;;;12910504;23;20043;-78
2023/03/22 17:51:14;;;;;;;2.75;1.95;;;;;;;;;;12907489;23;20016;-77
2023/03/22 17:56:15;;;;;;;4.38;1.65;;;;;;;;;;12901185;23;20083;-78
2023/03/22 18:01:17;;;;;;;3.75;1.85;;;;;;;;;;12879232;23;20019;-78
2023/03/22 18:06:17;;;;;;;3.70;2.55;;;;;;;;;;12895173;23;20004;-80
2023/03/22 18:11:18;;;;;;;4.90;3.30;;;;;;;;;;12867315;23;20012;-78
2023/03/22 18:16:21;;;;;;;6.70;4.53;;;;;;;;;;12896019;23;20258;-76
2023/03/22 18:21:21;;;;;;;;;;;;;;;;;;12895958;23;20024;-76
2023/03/22 18:26:22;;;;;;;9.43;5.10;;;;;;;;;;12867302;23;19916;-81
2023/03/22 18:31:22;;;;;;;8.70;5.00;;;;;;;;;;12862184;23;20035;-80
2023/03/22 18:36:23;;;;;;;7.63;4.93;;;;;;;;;;12894831;23;20094;-75
2023/03/22 18:41:23;;;;;;;5.80;4.50;;;;;;;;;;12869501;23;20747;-77
2023/03/22 18:46:23;;;;;;;7.50;5.87;;;;;;;;;;12898662;23;20020;-75
2023/03/22 18:51:28;;;;;;;9.40;6.03;;;;;;;;;;12843989;22;20259;-76
2023/03/22 18:56:29;;;;;;;9.93;7.03;;;;;;;;;;12900340;23;20131;-77
2023/03/22 19:01:29;;;;;;;10.98;7.38;;;;;;;;;;12901703;23;20151;-79
2023/03/22 19:06:31;;;;;;;9.82;6.30;;;;;;;;;;12873261;23;20655;-78
2023/03/22 19:11:31;;;;;;;7.47;4.55;;;;;;;;;;12871529;22;20016;-76
2023/03/22 19:16:32;;;;;;;9.67;7.03;;;;;;;;;;12895074;23;20012;-78
2023/03/22 19:21:33;;;;;;;8.70;6.05;;;;;;;;;;12846100;23;20282;-78
2023/03/22 19:26:34;;;;;;;10.88;7.53;;;;;;;;;;12900670;22;20483;-79
2023/03/22 19:31:37;;;;;;;10.20;7.25;;;;;;;;;;12898567;23;20012;-78
2023/03/22 19:36:38;;;;;;;9.73;6.93;;;;;;;;;;12869891;23;20016;-77
2023/03/22 19:41:39;;;;;;;9.65;6.78;;;;;;;;;;12871130;22;20027;-77
2023/03/22 19:46:42;;;;;;;10.63;7.20;;;;;;;;;;12872565;23;20008;-77
2023/03/22 19:51:42;;;;;;;9.95;7.47;;;;;;;;;;12895944;22;20627;-80
2023/03/22 19:56:45;;;;;;;10.32;7.38;;;;;;;;;;12875288;23;20008;-79
2023/03/22 20:01:46;;;;;;;11.07;8.90;;;;;;;;;;12849239;22;20627;-81
2023/03/22 20:06:48;;;;;;;9.35;6.82;;;;;;;;;;12846232;22;20015;-77
2023/03/22 20:11:48;;;;;;;8.35;5.90;;;;;;;;;;12894600;23;20430;-77
2023/03/22 20:16:49;;;;;;;6.95;5.07;;;;;;;;;;12894205;22;20361;-79
2023/03/22 20:21:49;;;;;;;7.77;4.63;;;;;;;;;;12862523;22;20032;-76
2023/03/22 20:26:49;;;;;;;6.13;4.43;;;;;;;;;;12890162;23;20249;-78
2023/03/22 20:31:50;;;;;;;6.88;4.78;;;;;;;;;;12862089;22;20425;-77
2023/03/22 20:36:51;;;;;;;7.00;4.60;;;;;;;;;;12863707;23;20020;-79
2023/03/22 20:41:57;;;;;;;8.70;4.82;;;;;;;;;;12889895;23;20054;-82
2023/03/22 20:46:57;;;;;;;6.03;4.63;;;;;;;;;;12889830;23;20012;-82
2023/03/22 20:51:58;;;;;;;7.65;4.80;;;;;;;;;;12894095;22;20446;-81
2023/03/22 20:56:59;;;;;;;6.13;4.20;;;;;;;;;;12871813;23;20394;-78
2023/03/22 21:01:59;;;;;;;5.10;4.10;;;;;;;;;;12891735;22;20032;-77
2023/03/22 21:06:59;;;;;;;5.77;4.10;;;;;;;;;;12893980;23;20005;-78
2023/03/22 21:12:00;;;;;;;5.53;4.15;;;;;;;;;;12894005;23;20239;-78
2023/03/22 21:17:00;;;;;;;6.35;4.28;;;;;;;;;;12894330;23;20020;-79
2023/03/22 21:22:01;;;;;;;5.05;4.30;;;;;;;;;;12867779;23;20425;-77
2023/03/22 21:27:02;;;;;;;7.17;5.20;;;;;;;;;;12894670;23;20031;-76
2023/03/22 21:32:03;;;;;;;6.45;5.18;;;;;;;;;;12893885;23;20084;-79
2023/03/22 21:37:04;;;;;;;5.68;4.65;;;;;;;;;;12892997;23;20119;-78
2023/03/22 21:42:04;;;;;;;7.22;4.93;;;;;;;;;;12841407;22;20028;-79
2023/03/22 21:47:05;;;;;;;4.72;4.22;;;;;;;;;;12895095;22;20066;-78
2023/03/22 21:52:06;;;;;;;7.32;4.22;;;;;;;;;;12893808;23;20015;-78
2023/03/22 21:57:07;;;;;;;6.72;4.28;;;;;;;;;;12866725;22;20061;-78
2023/03/22 22:02:10;;;;;;;8.23;4.25;;;;;;;;;;12867219;23;20019;-81
2023/03/22 22:07:15;;;;;;;6.07;4.07;;;;;;;;;;12843214;23;20012;-79
2023/03/22 22:12:15;;;;;;;4.78;3.88;;;;;;;;;;12849530;23;20194;-80
2023/03/22 22:17:16;;;;;;;5.80;4.22;;;;;;;;;;12914329;23;20043;-82
2023/03/22 22:22:22;;;;;;;5.40;4.03;;;;;;;;;;12882963;23;20019;-80
2023/03/22 22:27:23;;;;;;;9.48;5.47;;;;;;;;;;12880637;23;20035;-80
2023/03/22 22:32:25;;;;;;;7.85;4.68;;;;;;;;;;12882612;23;20008;-79
2023/03/22 22:37:27;;;;;;;;;;;;;;;;;;12907649;23;20512;-81
2023/03/22 22:42:52;;;;;;;4.43;3.97;;;;;;;;;;12905149;23;19907;-78
2023/03/22 22:48:08;;;;;;;9.45;4.30;;;;;;;;;;12901785;23;20012;-77
2023/03/22 22:53:08;;;;;;;6.28;4.15;;;;;;;;;;12876126;22;20008;-76
2023/03/22 22:58:09;;;;;;;4.80;3.70;;;;;;;;;;12874149;22;20028;-76
2023/03/22 23:03:11;;;;;;;7.53;4.20;;;;;;;;;;12896562;23;20008;-79
2023/03/22 23:08:12;;;;;;;5.80;4.28;;;;;;;;;;12868303;22;21118;-77
2023/03/22 23:13:12;;;;;;;6.38;3.90;;;;;;;;;;12894253;22;20527;-75
2023/03/22 23:18:14;;;;;;;4.78;4.20;;;;;;;;;;12866138;23;20027;-75
2023/03/22 23:23:19;;;;;;;5.85;3.92;;;;;;;;;;12866451;23;20012;-78
2023/03/22 23:28:20;;;;;;;5.35;4.20;;;;;;;;;;12896806;23;20018;-78
2023/03/22 23:33:21;;;;;;;6.18;4.05;;;;;;;;;;12896865;23;20012;-75
2023/03/22 23:38:22;;;;;;;8.55;4.43;;;;;;;;;;12877540;23;20031;-76
2023/03/22 23:43:23;;;;;;;7.13;4.30;;;;;;;;;;12905605;22;20520;-75
2023/03/22 23:48:24;;;;;;;6.68;3.92;;;;;;;;;;12881347;23;20258;-78
2023/03/22 23:53:24;;;;;;;5.88;4.07;;;;;;;;;;12898648;23;20038;-76
2023/03/22 23:58:27;;;;;;;5.82;4.25;;;;;;;;;;12894390;23;20020;-75
